Time;durP1;ratioP1;P1;durP2;ratioP2;P2;SDS_P1;SDS_P2;PMS_P1;PMS_P2;Temp;Humidity;BMP_temperature;BMP_pressure;BME280_temperature;BME280_humidity;BME280_pressure;Samples;Min_cycle;Max_cycle;Signal;HPM_P1;HPM_P2
2021/12/30 00:00:50;;;;;;;50.75;6.72;;;9.00;99.90;;;;;;5023766;28;20060;-71
2021/12/30 00:03:17;;;;;;;49.28;6.75;;;9.00;99.90;;;;;;4976554;28;221978;-72
2021/12/30 00:05:46;;;;;;;43.45;5.82;;;8.90;99.90;;;;;;4989839;28;20076;-70
2021/12/30 00:08:13;;;;;;;51.03;6.85;;;8.90;99.90;;;;;;5004688;28;271137;-71
2021/12/30 00:10:42;;;;;;;43.45;7.15;;;8.90;99.90;;;;;;5024121;28;20041;-71
2021/12/30 00:13:09;;;;;;;46.20;5.65;;;9.00;99.90;;;;;;5001202;28;276025;-71
2021/12/30 00:15:36;;;;;;;51.08;6.65;;;9.00;99.90;;;;;;5005481;28;20065;-70
2021/12/30 00:18:04;;;;;;;59.40;7.07;;;8.90;99.90;;;;;;5006014;28;200317;-71
2021/12/30 00:20:32;;;;;;;51.55;6.65;;;8.90;99.90;;;;;;5024281;28;20234;-71
2021/12/30 00:23:06;;;;;;;55.55;7.63;;;8.90;99.90;;;;;;4988539;28;46162;-71
2021/12/30 00:25:38;;;;;;;50.28;6.55;;;8.90;99.90;;;;;;5016879;28;20054;-71
2021/12/30 00:28:14;;;;;;;55.03;6.57;;;8.90;99.90;;;;;;5004377;28;249837;-71
2021/12/30 00:30:40;;;;;;;53.38;6.70;;;8.80;99.90;;;;;;5028471;28;20033;-70
2021/12/30 00:33:07;;;;;;;56.35;7.10;;;8.80;99.90;;;;;;5003116;28;276812;-71
2021/12/30 00:35:34;;;;;;;57.97;7.35;;;8.80;99.90;;;;;;5023308;28;20050;-70
2021/12/30 00:38:00;;;;;;;49.83;6.95;;;8.80;99.90;;;;;;4990696;28;220549;-71
2021/12/30 00:40:27;;;;;;;53.95;7.38;;;8.70;99.90;;;;;;5031961;28;20581;-71
2021/12/30 00:42:53;;;;;;;59.08;8.05;;;8.70;99.90;;;;;;5007756;28;264906;-71
2021/12/30 00:45:22;;;;;;;56.78;8.02;;;8.70;99.90;;;;;;5029083;28;20033;-71
2021/12/30 00:47:48;;;;;;;61.35;8.07;;;8.70;99.90;;;;;;5009214;28;251573;-70
2021/12/30 00:50:15;;;;;;;59.85;8.20;;;8.70;99.90;;;;;;5027447;28;20467;-70
2021/12/30 00:52:41;;;;;;;49.13;7.15;;;8.70;99.90;;;;;;5006353;28;255663;-69
2021/12/30 00:55:14;;;;;;;60.10;7.53;;;8.70;99.90;;;;;;5016169;28;20056;-69
2021/12/30 00:57:41;;;;;;;50.88;7.65;;;8.70;99.90;;;;;;5007084;28;255904;-70
2021/12/30 01:00:12;;;;;;;54.58;7.90;;;8.60;99.90;;;;;;5010250;28;20297;-70
2021/12/30 01:02:38;;;;;;;56.38;6.78;;;8.60;99.90;;;;;;5000246;28;138509;-71
2021/12/30 01:05:05;;;;;;;56.10;7.97;;;8.60;99.90;;;;;;5011125;28;20049;-70
2021/12/30 01:07:31;;;;;;;60.67;7.82;;;8.50;99.90;;;;;;5006907;28;276199;-69
2021/12/30 01:09:57;;;;;;;52.70;7.60;;;8.50;99.90;;;;;;5010414;28;20049;-73
2021/12/30 01:12:24;;;;;;;62.22;7.95;;;8.40;99.90;;;;;;5004726;28;256893;-71
2021/12/30 01:14:50;;;;;;;53.05;7.60;;;8.40;99.90;;;;;;4991960;28;20592;-72
2021/12/30 01:17:27;;;;;;;56.83;7.60;;;8.30;99.90;;;;;;5008179;28;266078;-70
2021/12/30 01:19:53;;;;;;;54.97;7.40;;;8.30;99.90;;;;;;5009212;28;20057;-70
2021/12/30 01:22:26;;;;;;;51.22;7.35;;;8.30;99.90;;;;;;4991236;28;223410;-70
2021/12/30 01:24:52;;;;;;;55.22;6.90;;;8.30;99.90;;;;;;5009928;28;20072;-70
2021/12/30 01:27:19;;;;;;;52.10;7.53;;;8.30;99.90;;;;;;5005267;28;263095;-69
2021/12/30 01:29:47;;;;;;;49.40;7.05;;;8.30;99.90;;;;;;5023922;28;20053;-69
2021/12/30 01:32:13;;;;;;;54.47;7.25;;;8.20;99.90;;;;;;5007487;28;249501;-71
2021/12/30 01:34:39;;;;;;;50.13;7.38;;;8.20;99.90;;;;;;5008918;28;20411;-70
2021/12/30 01:37:06;;;;;;;49.65;7.00;;;8.20;99.90;;;;;;4982292;28;41745;-70
2021/12/30 01:39:37;;;;;;;45.70;6.80;;;8.20;99.90;;;;;;5025461;28;20049;-71
2021/12/30 01:42:04;;;;;;;53.28;6.68;;;8.20;99.90;;;;;;4990578;28;249239;-70
2021/12/30 01:44:32;;;;;;;43.67;6.30;;;8.20;99.90;;;;;;5025870;28;20140;-70
2021/12/30 01:47:01;;;;;;;58.20;7.20;;;8.20;99.90;;;;;;5003860;28;252779;-72
2021/12/30 01:49:28;;;;;;;49.70;7.22;;;8.20;99.90;;;;;;5016786;28;20061;-70
2021/12/30 01:51:55;;;;;;;56.17;6.88;;;8.20;99.90;;;;;;5007263;28;270987;-70
2021/12/30 01:54:22;;;;;;;58.05;7.50;;;8.20;99.90;;;;;;5009256;28;20045;-71
2021/12/30 01:56:52;;;;;;;52.83;7.10;;;8.20;99.90;;;;;;4989021;28;268244;-70
2021/12/30 01:59:21;;;;;;;41.00;6.03;;;8.20;99.90;;;;;;5024464;28;20049;-71
2021/12/30 02:01:53;;;;;;;56.53;6.70;;;8.20;99.90;;;;;;4992167;28;267407;-70
2021/12/30 02:04:19;;;;;;;53.33;6.60;;;8.20;99.90;;;;;;5022921;28;20049;-70
2021/12/30 02:06:45;;;;;;;47.17;6.35;;;8.20;99.90;;;;;;4988454;28;268016;-69
2021/12/30 02:09:12;;;;;;;42.40;6.40;;;8.20;99.90;;;;;;5024086;28;20053;-70
2021/12/30 02:11:38;;;;;;;62.42;7.40;;;8.20;99.90;;;;;;5024867;28;20116;-70
2021/12/30 02:14:04;;;;;;;48.17;6.78;;;8.30;99.90;;;;;;5004056;28;270784;-70
2021/12/30 02:16:30;;;;;;;57.38;8.23;;;8.20;99.90;;;;;;5025726;28;20073;-70
2021/12/30 02:18:56;;;;;;;42.85;6.75;;;8.30;99.90;;;;;;5003693;28;256708;-69
2021/12/30 02:21:22;;;;;;;52.30;7.40;;;8.30;99.90;;;;;;5025720;28;20050;-70
2021/12/30 02:23:48;;;;;;;48.70;6.47;;;8.30;99.90;;;;;;5006161;28;252242;-71
2021/12/30 02:26:17;;;;;;;52.78;6.80;;;8.30;99.90;;;;;;5010072;28;20041;-70
2021/12/30 02:28:44;;;;;;;54.78;7.00;;;8.30;99.90;;;;;;4992671;28;140315;-70
2021/12/30 02:31:16;;;;;;;55.10;7.50;;;8.30;99.90;;;;;;5009193;28;20049;-70
2021/12/30 02:33:44;;;;;;;56.55;6.35;;;8.30;99.90;;;;;;4993701;28;89149;-69
2021/12/30 02:36:11;;;;;;;48.42;7.45;;;8.30;99.90;;;;;;5026474;28;20145;-72
2021/12/30 02:38:42;;;;;;;48.67;6.82;;;8.30;99.90;;;;;;5003262;28;273837;-69
2021/12/30 02:41:08;;;;;;;46.90;7.25;;;8.30;99.90;;;;;;5024677;28;20056;-70
2021/12/30 02:43:34;;;;;;;52.70;8.15;;;8.20;99.90;;;;;;5006606;28;248826;-69
2021/12/30 02:46:01;;;;;;;58.78;8.65;;;8.20;99.90;;;;;;5029246;28;20033;-69
2021/12/30 02:48:30;;;;;;;57.80;8.10;;;8.20;99.90;;;;;;5008323;28;121055;-70
2021/12/30 02:51:00;;;;;;;55.75;7.90;;;8.20;99.90;;;;;;5006232;28;20076;-69
2021/12/30 02:53:26;;;;;;;54.90;8.23;;;8.20;99.90;;;;;;5004246;28;273339;-70
2021/12/30 02:55:53;;;;;;;60.22;9.38;;;8.20;99.90;;;;;;5022319;28;20037;-70
2021/12/30 02:58:24;;;;;;;63.05;8.93;;;8.20;99.90;;;;;;5005258;28;268794;-70
2021/12/30 03:01:00;;;;;;;50.47;8.32;;;8.30;99.90;;;;;;5023708;28;20057;-69
2021/12/30 03:03:26;;;;;;;58.80;9.13;;;8.20;99.90;;;;;;4984976;28;263178;-71
2021/12/30 03:06:00;;;;;;;66.72;9.45;;;8.30;99.90;;;;;;5006929;28;20360;-73
2021/12/30 03:08:27;;;;;;;59.90;9.90;;;8.30;99.90;;;;;;5005720;28;274234;-72
2021/12/30 03:10:54;;;;;;;60.70;10.85;;;8.30;99.90;;;;;;5005065;28;20107;-70
2021/12/30 03:13:31;;;;;;;66.28;10.80;;;8.40;99.90;;;;;;5003016;28;256606;-71
2021/12/30 03:16:03;;;;;;;67.72;11.80;;;8.40;99.90;;;;;;5005624;28;20426;-70
2021/12/30 03:18:34;;;;;;;56.58;11.82;;;8.40;99.90;;;;;;5009635;28;61820;-70
2021/12/30 03:21:03;;;;;;;63.95;12.23;;;8.40;99.90;;;;;;5025828;28;20057;-70
2021/12/30 03:23:34;;;;;;;74.05;14.30;;;8.40;99.90;;;;;;4990592;28;196160;-69
2021/12/30 03:26:01;;;;;;;70.72;14.52;;;8.50;99.90;;;;;;5023725;28;20050;-71
2021/12/30 03:28:30;;;;;;;74.65;15.85;;;8.50;99.90;;;;;;4992544;28;92366;-71
2021/12/30 03:30:58;;;;;;;76.82;15.50;;;8.50;99.90;;;;;;5025451;28;20037;-71
2021/12/30 03:33:26;;;;;;;80.15;16.23;;;8.50;99.90;;;;;;4991600;28;170906;-70
2021/12/30 03:35:54;;;;;;;83.80;17.38;;;8.60;99.90;;;;;;5011912;28;20394;-71
2021/12/30 03:38:20;;;;;;;70.60;16.02;;;8.60;99.90;;;;;;4989005;28;219292;-71
2021/12/30 03:40:46;;;;;;;75.55;16.90;;;8.70;99.90;;;;;;5024136;28;20525;-69
2021/12/30 03:43:13;;;;;;;93.50;17.90;;;8.70;99.90;;;;;;5003804;28;250927;-69
2021/12/30 03:45:39;;;;;;;89.90;19.25;;;8.70;99.90;;;;;;5007297;28;20053;-69
2021/12/30 03:48:08;;;;;;;82.38;16.40;;;8.80;99.90;;;;;;4990541;28;192684;-70
2021/12/30 03:50:34;;;;;;;79.53;17.55;;;8.80;99.90;;;;;;5023575;28;20053;-70
2021/12/30 03:53:02;;;;;;;70.07;15.82;;;8.90;99.90;;;;;;5004483;28;265219;-69
2021/12/30 03:55:30;;;;;;;84.40;16.55;;;8.80;99.90;;;;;;5026913;28;20072;-69
2021/12/30 03:57:56;;;;;;;82.85;16.70;;;8.90;99.90;;;;;;5004930;28;257575;-70
2021/12/30 04:00:25;;;;;;;80.22;16.27;;;8.90;99.90;;;;;;5023984;28;21132;-70
2021/12/30 04:02:51;;;;;;;78.43;15.20;;;8.80;99.90;;;;;;4990589;28;267076;-70
2021/12/30 04:05:18;;;;;;;88.38;15.07;;;8.90;99.90;;;;;;5007922;28;20176;-71
2021/12/30 04:07:44;;;;;;;86.68;16.20;;;8.80;99.90;;;;;;5003675;28;262600;-70
2021/12/30 04:10:13;;;;;;;77.28;16.15;;;8.90;99.90;;;;;;5004636;28;20056;-70
2021/12/30 04:12:40;;;;;;;73.70;14.90;;;8.90;99.90;;;;;;4990876;28;140140;-69
2021/12/30 04:15:08;;;;;;;88.05;15.80;;;8.90;99.90;;;;;;5004146;28;20541;-71
2021/12/30 04:17:34;;;;;;;80.18;15.65;;;9.00;99.90;;;;;;4991289;28;130690;-70
2021/12/30 04:20:00;;;;;;;68.28;14.75;;;9.00;99.90;;;;;;5003274;28;20049;-70
2021/12/30 04:22:26;;;;;;;83.22;16.20;;;9.10;99.90;;;;;;5004376;28;258199;-70
2021/12/30 04:24:52;;;;;;;81.57;15.88;;;9.20;99.90;;;;;;4989493;28;20502;-70
2021/12/30 04:27:21;;;;;;;82.75;15.15;;;9.20;99.90;;;;;;5004988;28;127566;-69
2021/12/30 04:29:47;;;;;;;79.03;14.45;;;9.20;99.90;;;;;;5021418;28;20175;-70
2021/12/30 04:32:14;;;;;;;75.90;15.68;;;9.30;99.90;;;;;;5005601;28;260898;-70
2021/12/30 04:34:40;;;;;;;78.97;15.98;;;9.30;99.90;;;;;;5022709;28;20052;-72
2021/12/30 04:37:06;;;;;;;76.03;15.18;;;9.30;99.90;;;;;;5001963;28;275521;-70
2021/12/30 04:39:32;;;;;;;84.53;15.15;;;9.30;99.90;;;;;;5004363;28;20053;-70
2021/12/30 04:41:58;;;;;;;97.97;16.52;;;9.40;99.90;;;;;;4984695;28;251007;-69
2021/12/30 04:44:25;;;;;;;85.38;16.75;;;9.40;99.90;;;;;;5022429;28;20052;-69
2021/12/30 04:46:56;;;;;;;82.82;17.20;;;9.50;99.90;;;;;;5002564;28;263120;-70
2021/12/30 04:49:23;;;;;;;85.57;16.80;;;9.50;99.90;;;;;;5003124;28;20410;-69
2021/12/30 04:51:49;;;;;;;93.22;16.40;;;9.60;99.90;;;;;;5001377;28;269422;-70
2021/12/30 04:54:16;;;;;;;87.70;16.92;;;9.60;99.90;;;;;;5019910;28;20061;-69
2021/12/30 04:56:42;;;;;;;86.60;17.90;;;9.60;99.90;;;;;;4991055;28;261037;-71
2021/12/30 04:59:11;;;;;;;92.75;17.67;;;9.60;99.90;;;;;;5018531;28;20049;-71
2021/12/30 05:01:38;;;;;;;79.75;17.08;;;9.70;99.90;;;;;;5023110;28;20060;-71
2021/12/30 05:04:05;;;;;;;89.88;17.70;;;9.70;99.90;;;;;;4974326;28;199343;-69
2021/12/30 05:06:34;;;;;;;78.35;17.42;;;9.80;99.90;;;;;;5005179;28;20052;-70
2021/12/30 05:09:00;;;;;;;79.68;18.02;;;9.80;99.90;;;;;;5002193;28;263180;-71
2021/12/30 05:11:26;;;;;;;72.05;16.38;;;9.90;99.90;;;;;;5003685;28;20052;-70
2021/12/30 05:13:52;;;;;;;74.38;16.98;;;9.90;99.90;;;;;;5000821;28;271511;-70
2021/12/30 05:16:19;;;;;;;71.82;16.52;;;10.00;99.90;;;;;;5006117;28;20068;-70
2021/12/30 05:18:45;;;;;;;64.55;15.30;;;10.00;99.90;;;;;;4993457;28;27865;-70
2021/12/30 05:21:14;;;;;;;57.40;14.52;;;10.10;99.90;;;;;;5003488;28;20049;-71
2021/12/30 05:23:40;;;;;;;66.70;15.18;;;10.10;99.90;;;;;;4988077;28;194496;-71
2021/12/30 05:26:09;;;;;;;55.80;15.00;;;10.20;99.90;;;;;;5025519;28;20061;-70
2021/12/30 05:28:35;;;;;;;53.53;13.60;;;10.20;99.90;;;;;;5004529;28;274162;-73
2021/12/30 05:31:02;;;;;;;47.45;13.52;;;10.20;99.90;;;;;;5027394;28;20394;-71
2021/12/30 05:33:28;;;;;;;46.88;13.35;;;10.30;99.90;;;;;;4997636;28;20486;-71
2021/12/30 05:35:57;;;;;;;44.55;12.60;;;10.30;99.90;;;;;;5025117;28;20053;-72
2021/12/30 05:38:23;;;;;;;37.80;12.13;;;10.30;99.90;;;;;;4909085;28;2998891;-72
2021/12/30 05:40:49;;;;;;;37.08;11.48;;;10.30;99.90;;;;;;5023051;28;20053;-72
2021/12/30 05:43:15;;;;;;;38.70;12.20;;;10.40;99.90;;;;;;4910549;28;2996627;-71
2021/12/30 05:45:41;;;;;;;41.50;11.30;;;10.40;99.90;;;;;;5006200;28;20045;-71
2021/12/30 05:48:07;;;;;;;33.85;11.60;;;10.40;99.90;;;;;;5005931;28;152487;-70
2021/12/30 05:50:36;;;;;;;33.80;11.23;;;10.40;99.90;;;;;;5006803;28;20055;-72
2021/12/30 05:53:03;;;;;;;30.83;11.77;;;10.50;99.90;;;;;;4989413;28;214441;-73
2021/12/30 05:55:30;;;;;;;39.22;12.80;;;10.50;99.90;;;;;;5024970;28;20057;-72
2021/12/30 05:57:58;;;;;;;35.22;11.77;;;10.50;99.90;;;;;;5009841;28;49270;-74
2021/12/30 06:00:26;;;;;;;38.33;13.25;;;10.50;99.90;;;;;;5024424;28;20053;-71
2021/12/30 06:02:53;;;;;;;50.15;15.27;;;10.50;99.90;;;;;;4982813;28;80414;-72
2021/12/30 06:05:19;;;;;;;48.05;17.17;;;10.60;99.90;;;;;;5007085;28;20825;-72
2021/12/30 06:07:46;;;;;;;42.13;16.70;;;10.60;99.90;;;;;;4995937;28;113399;-71
2021/12/30 06:10:15;;;;;;;54.15;18.23;;;10.60;99.90;;;;;;5003053;28;20046;-71
2021/12/30 06:12:43;;;;;;;69.47;19.02;;;10.70;99.90;;;;;;4989991;28;162925;-72
2021/12/30 06:15:11;;;;;;;65.65;20.98;;;10.70;99.90;;;;;;5027602;28;20585;-71
2021/12/30 06:17:41;;;;;;;73.65;21.83;;;10.70;99.90;;;;;;4990825;28;167778;-71
2021/12/30 06:20:10;;;;;;;78.83;23.67;;;10.80;99.90;;;;;;5008389;28;20053;-70
2021/12/30 06:22:36;;;;;;;76.97;21.73;;;10.80;99.90;;;;;;4988864;28;277167;-71
2021/12/30 06:25:04;;;;;;;94.10;24.27;;;10.80;99.90;;;;;;5008950;28;20064;-71
2021/12/30 06:27:31;;;;;;;89.65;23.67;;;10.90;99.90;;;;;;5007610;28;255425;-71
2021/12/30 06:29:57;;;;;;;99.28;24.58;;;10.90;99.90;;;;;;5024545;28;20415;-72
2021/12/30 06:32:23;;;;;;;109.13;26.55;;;10.90;99.90;;;;;;5005164;28;269883;-71
2021/12/30 06:34:49;;;;;;;104.90;27.33;;;10.90;99.90;;;;;;5023429;28;20049;-70
2021/12/30 06:37:15;;;;;;;108.72;26.25;;;10.90;99.90;;;;;;5004418;28;257342;-71
2021/12/30 06:39:42;;;;;;;99.93;25.40;;;10.90;99.90;;;;;;5007898;28;20049;-72
2021/12/30 06:42:10;;;;;;;97.03;25.08;;;10.90;99.90;;;;;;5005300;28;265356;-70
2021/12/30 06:44:37;;;;;;;109.60;25.63;;;11.00;99.90;;;;;;5022434;28;20058;-72
2021/12/30 06:47:06;;;;;;;87.10;24.98;;;11.00;99.90;;;;;;5003863;28;292513;-72
2021/12/30 06:49:37;;;;;;;85.80;23.60;;;11.00;99.90;;;;;;5024066;28;20510;-72
2021/12/30 06:52:09;;;;;;;84.70;22.33;;;11.00;99.90;;;;;;4986202;28;318825;-72
2021/12/30 06:54:36;;;;;;;83.55;22.90;;;11.00;99.90;;;;;;5021976;28;20065;-71
2021/12/30 06:57:03;;;;;;;66.53;20.23;;;11.00;99.90;;;;;;5004107;28;250512;-71
2021/12/30 06:59:30;;;;;;;62.78;19.85;;;11.10;99.90;;;;;;5023649;28;20053;-72
2021/12/30 07:01:59;;;;;;;63.17;19.35;;;11.10;99.90;;;;;;4992619;28;324897;-71
2021/12/30 07:04:28;;;;;;;52.75;18.02;;;11.10;99.90;;;;;;5022219;28;20045;-70
2021/12/30 07:06:54;;;;;;;54.27;17.17;;;11.10;99.90;;;;;;4985344;28;277510;-72
2021/12/30 07:09:21;;;;;;;52.03;17.27;;;11.10;99.90;;;;;;5006290;28;20058;-72
2021/12/30 07:11:49;;;;;;;49.47;16.40;;;11.10;99.90;;;;;;4984965;28;262097;-72
2021/12/30 07:14:17;;;;;;;51.83;16.63;;;11.10;99.90;;;;;;5010812;28;20549;-73
2021/12/30 07:16:45;;;;;;;47.18;16.02;;;11.10;99.90;;;;;;4975739;28;3004164;-71
2021/12/30 07:19:12;;;;;;;47.90;15.45;;;11.10;99.90;;;;;;5020578;28;20045;-70
2021/12/30 07:21:39;;;;;;;40.40;13.70;;;11.20;99.90;;;;;;5024044;28;20426;-72
2021/12/30 07:24:06;;;;;;;41.03;14.07;;;11.20;99.90;;;;;;4909257;28;3005490;-71
2021/12/30 07:26:32;;;;;;;37.08;13.00;;;11.20;99.90;;;;;;5019408;28;20060;-72
2021/12/30 07:28:59;;;;;;;42.78;13.55;;;11.20;99.90;;;;;;5006099;28;213582;-71
2021/12/30 07:31:28;;;;;;;37.00;12.45;;;11.30;99.90;;;;;;5021813;28;20160;-70
2021/12/30 07:33:55;;;;;;;32.97;11.10;;;11.30;99.90;;;;;;5002546;28;302179;-71
2021/12/30 07:36:21;;;;;;;33.03;11.27;;;11.30;99.90;;;;;;5023540;28;20049;-72
2021/12/30 07:38:48;;;;;;;27.95;9.40;;;11.30;99.90;;;;;;5004553;28;257493;-72
2021/12/30 07:41:15;;;;;;;23.65;8.13;;;11.30;99.90;;;;;;5022696;28;20049;-70
2021/12/30 07:43:41;;;;;;;23.08;8.00;;;11.40;99.90;;;;;;5000615;28;252666;-72
2021/12/30 07:46:09;;;;;;;18.45;6.47;;;11.40;99.90;;;;;;5022207;28;20755;-72
2021/12/30 07:48:38;;;;;;;18.05;6.63;;;11.40;99.90;;;;;;5008635;28;112450;-73
2021/12/30 07:51:05;;;;;;;20.42;5.78;;;11.40;99.90;;;;;;5007282;28;20506;-72
2021/12/30 07:53:31;;;;;;;19.40;6.15;;;11.40;99.90;;;;;;5004454;28;254406;-71
2021/12/30 07:56:01;;;;;;;17.40;5.38;;;11.50;99.90;;;;;;5022078;28;20049;-71
2021/12/30 07:58:28;;;;;;;15.60;5.53;;;11.50;99.90;;;;;;5002004;28;262545;-70
2021/12/30 08:00:54;;;;;;;16.08;5.53;;;11.50;99.90;;;;;;5023523;28;20057;-70
2021/12/30 08:03:24;;;;;;;17.08;5.38;;;11.50;99.90;;;;;;4984647;28;261539;-73
2021/12/30 08:05:51;;;;;;;14.77;5.35;;;11.50;99.90;;;;;;4989504;28;20045;-70
2021/12/30 08:08:17;;;;;;;15.50;4.88;;;11.50;99.90;;;;;;4989215;28;154514;-72
2021/12/30 08:10:44;;;;;;;12.10;3.78;;;11.50;99.90;;;;;;5005561;28;20498;-71
2021/12/30 08:13:10;;;;;;;13.43;4.32;;;11.50;99.90;;;;;;4903852;28;3013258;-71
2021/12/30 08:15:36;;;;;;;11.38;4.03;;;11.50;99.90;;;;;;5004037;28;20295;-70
2021/12/30 08:18:03;;;;;;;10.30;3.88;;;11.50;99.90;;;;;;5008448;28;73875;-71
2021/12/30 08:20:29;;;;;;;12.85;4.10;;;11.50;99.90;;;;;;5010632;28;20053;-71
2021/12/30 08:22:56;;;;;;;13.15;3.83;;;11.60;99.90;;;;;;5001759;28;269760;-73
2021/12/30 08:25:25;;;;;;;11.23;3.20;;;11.60;99.90;;;;;;5022428;28;20446;-72
2021/12/30 08:27:57;;;;;;;9.45;2.92;;;11.50;99.90;;;;;;4993947;28;20141;-71
2021/12/30 08:30:23;;;;;;;9.57;3.00;;;11.60;99.90;;;;;;5010666;28;20057;-71
2021/12/30 08:32:51;;;;;;;8.55;2.85;;;11.50;99.90;;;;;;4889106;28;2995646;-70
2021/12/30 08:35:21;;;;;;;9.85;3.00;;;11.60;99.90;;;;;;5020085;28;20458;-71
2021/12/30 08:37:47;;;;;;;11.95;3.53;;;11.60;99.90;;;;;;4985218;28;196121;-73
2021/12/30 08:40:16;;;;;;;11.32;4.22;;;11.60;99.90;;;;;;5019607;28;20523;-70
2021/12/30 08:42:43;;;;;;;12.10;4.78;;;11.60;99.90;;;;;;4998548;28;268309;-69
2021/12/30 08:45:10;;;;;;;13.50;4.85;;;11.70;99.90;;;;;;4997745;28;20045;-68
2021/12/30 08:47:37;;;;;;;13.98;5.35;;;11.70;99.90;;;;;;5001680;28;272181;-70
2021/12/30 08:50:06;;;;;;;16.20;5.80;;;11.70;99.90;;;;;;5000991;28;20057;-72
2021/12/30 08:52:32;;;;;;;18.55;6.13;;;11.80;99.90;;;;;;5001141;28;152339;-70
2021/12/30 08:55:04;;;;;;;17.27;5.70;;;11.80;99.90;;;;;;5012575;28;20056;-72
2021/12/30 08:57:40;;;;;;;22.33;6.78;;;11.90;99.90;;;;;;4995899;28;44556;-71
2021/12/30 09:00:12;;;;;;;20.85;7.72;;;11.90;99.90;;;;;;5006674;28;20506;-70
2021/12/30 09:02:38;;;;;;;22.67;7.28;;;12.00;99.90;;;;;;4996065;28;257212;-70
2021/12/30 09:05:05;;;;;;;23.35;7.32;;;12.00;99.90;;;;;;5032291;28;20037;-74
2021/12/30 09:07:31;;;;;;;18.08;6.93;;;12.00;99.90;;;;;;5004679;28;262260;-70
2021/12/30 09:09:57;;;;;;;21.30;6.70;;;12.00;99.90;;;;;;5008603;28;20395;-73
2021/12/30 09:12:24;;;;;;;15.25;5.63;;;12.00;99.90;;;;;;5007885;28;207508;-71
2021/12/30 09:14:51;;;;;;;20.98;6.10;;;12.10;99.90;;;;;;5011024;28;20421;-70
2021/12/30 09:17:17;;;;;;;16.67;5.32;;;12.10;99.90;;;;;;5004773;28;278307;-71
2021/12/30 09:19:43;;;;;;;17.67;5.60;;;12.10;99.90;;;;;;5026454;28;20041;-71
2021/12/30 09:22:09;;;;;;;16.90;4.70;;;12.10;99.90;;;;;;5007069;28;264982;-71
2021/12/30 09:24:35;;;;;;;16.27;5.10;;;12.20;99.90;;;;;;5028991;28;20056;-71
2021/12/30 09:27:02;;;;;;;17.27;5.15;;;12.10;99.90;;;;;;5007988;28;257209;-70
2021/12/30 09:29:28;;;;;;;13.13;5.00;;;12.10;99.90;;;;;;5010678;28;20049;-71
2021/12/30 09:31:55;;;;;;;15.77;5.05;;;12.20;99.90;;;;;;5021124;28;266130;-70
2021/12/30 09:34:22;;;;;;;16.30;5.13;;;12.10;99.90;;;;;;5025369;28;20045;-69
2021/12/30 09:36:48;;;;;;;15.40;5.32;;;12.20;99.90;;;;;;5006633;28;253977;-70
2021/12/30 09:39:15;;;;;;;24.00;6.13;;;12.20;99.90;;;;;;5020812;28;20057;-70
2021/12/30 09:41:44;;;;;;;19.33;6.15;;;12.20;99.90;;;;;;5008708;28;20060;-71
2021/12/30 09:44:13;;;;;;;22.67;6.25;;;12.20;99.90;;;;;;5007928;28;21401;-72
2021/12/30 09:46:40;;;;;;;20.02;6.40;;;12.20;99.90;;;;;;5025387;28;20478;-71
2021/12/30 09:49:09;;;;;;;21.77;6.20;;;12.20;99.90;;;;;;5010284;28;106757;-71
2021/12/30 09:51:36;;;;;;;20.05;6.07;;;12.20;99.90;;;;;;5026559;28;20076;-72
2021/12/30 09:54:03;;;;;;;23.98;6.13;;;12.20;99.90;;;;;;5000477;28;89158;-72
2021/12/30 09:56:30;;;;;;;19.65;6.13;;;12.20;99.90;;;;;;5027765;28;20618;-70
2021/12/30 09:58:56;;;;;;;19.80;5.15;;;12.20;99.90;;;;;;5009219;28;247611;-70
2021/12/30 10:01:23;;;;;;;18.92;4.97;;;12.20;99.90;;;;;;5028109;28;20084;-70
2021/12/30 10:03:57;;;;;;;20.73;5.47;;;12.20;99.90;;;;;;4993159;28;270033;-71
2021/12/30 10:06:26;;;;;;;17.55;4.40;;;12.20;99.90;;;;;;5026514;28;20056;-71
2021/12/30 10:08:57;;;;;;;21.65;4.57;;;12.10;99.90;;;;;;5006648;28;87205;-71
2021/12/30 10:11:24;;;;;;;18.55;4.40;;;12.20;99.90;;;;;;5029744;28;20064;-70
2021/12/30 10:13:52;;;;;;;19.50;4.45;;;12.20;99.90;;;;;;5003781;28;267400;-71
2021/12/30 10:16:18;;;;;;;18.10;4.13;;;12.10;99.90;;;;;;5024370;28;20057;-72
2021/12/30 10:18:55;;;;;;;19.92;4.95;;;12.10;99.90;;;;;;4992361;28;20068;-72
2021/12/30 10:21:27;;;;;;;19.17;4.63;;;12.20;99.90;;;;;;5025938;28;20064;-71
2021/12/30 10:23:59;;;;;;;20.17;4.28;;;12.20;99.90;;;;;;5014913;28;20053;-72
2021/12/30 10:26:26;;;;;;;21.20;5.55;;;12.10;99.90;;;;;;5005739;28;20545;-70
2021/12/30 10:28:58;;;;;;;15.68;4.18;;;12.10;99.90;;;;;;5002170;28;256964;-71
2021/12/30 10:31:30;;;;;;;21.33;4.60;;;12.10;99.90;;;;;;5012416;28;20399;-70
2021/12/30 10:33:59;;;;;;;24.65;4.85;;;12.10;99.90;;;;;;5007135;28;265997;-70
2021/12/30 10:36:32;;;;;;;25.00;5.47;;;12.10;99.90;;;;;;5029704;28;20052;-72
2021/12/30 10:39:28;;;;;;;23.42;5.75;;;12.10;99.90;;;;;;5008171;28;277114;-71
2021/12/30 10:42:20;;;;;;;25.37;5.30;;;12.20;99.90;;;;;;5006844;28;267173;-71
2021/12/30 10:44:54;;;;;;;28.92;6.00;;;12.20;99.90;;;;;;5003993;28;20138;-70
2021/12/30 10:47:23;;;;;;;24.58;5.45;;;12.20;99.90;;;;;;5003639;28;266681;-70
2021/12/30 10:50:08;;;;;;;21.58;4.68;;;12.20;99.90;;;;;;5021752;28;20053;-71
2021/12/30 10:52:45;;;;;;;35.58;6.82;;;12.20;99.90;;;;;;4986340;28;210302;-70
2021/12/30 10:55:15;;;;;;;35.13;6.38;;;12.20;99.90;;;;;;5025240;28;20062;-71
2021/12/30 10:57:42;;;;;;;31.13;6.28;;;12.10;99.90;;;;;;5000275;28;258029;-71
2021/12/30 11:00:09;;;;;;;37.40;6.60;;;12.10;99.90;;;;;;5025456;28;20049;-71
2021/12/30 11:02:36;;;;;;;37.10;7.28;;;12.20;99.90;;;;;;4987827;28;257294;-70
2021/12/30 11:05:10;;;;;;;28.00;6.05;;;12.20;99.90;;;;;;5012234;28;20065;-70
2021/12/30 11:07:46;;;;;;;40.03;7.10;;;12.20;99.90;;;;;;5003217;28;257702;-70
2021/12/30 11:10:28;;;;;;;39.47;7.07;;;12.20;99.90;;;;;;5004598;28;20076;-71
2021/12/30 11:12:54;;;;;;;35.58;7.22;;;12.20;99.90;;;;;;5003869;28;258084;-70
2021/12/30 11:15:28;;;;;;;39.67;8.25;;;12.20;99.90;;;;;;5024352;28;20120;-71
2021/12/30 11:18:10;;;;;;;47.63;11.27;;;12.20;99.90;;;;;;5003945;28;261000;-70
2021/12/30 11:20:45;;;;;;;40.85;10.10;;;12.20;99.90;;;;;;5008041;28;20060;-71
2021/12/30 11:23:14;;;;;;;40.58;9.75;;;12.20;99.90;;;;;;4998536;28;20144;-70
2021/12/30 11:25:40;;;;;;;39.05;7.82;;;12.20;99.90;;;;;;5023304;28;20050;-71
2021/12/30 11:28:07;;;;;;;43.95;12.90;;;12.20;99.90;;;;;;4993424;28;55783;-72
2021/12/30 11:30:36;;;;;;;50.10;16.23;;;12.20;99.90;;;;;;5019415;28;20054;-70
2021/12/30 11:33:03;;;;;;;42.40;10.00;;;12.20;99.90;;;;;;5006632;28;163754;-71
2021/12/30 11:35:29;;;;;;;55.90;14.73;;;12.20;99.90;;;;;;5007206;28;20056;-70
2021/12/30 11:37:59;;;;;;;109.40;43.38;;;12.20;99.90;;;;;;5006017;28;266730;-71
2021/12/30 11:40:27;;;;;;;41.10;10.63;;;12.30;99.90;;;;;;5019601;28;20079;-70
2021/12/30 11:43:10;;;;;;;55.05;12.40;;;12.30;99.90;;;;;;5006061;28;214145;-72
2021/12/30 11:45:42;;;;;;;68.18;24.00;;;12.30;99.90;;;;;;5003176;28;20062;-70
2021/12/30 11:48:28;;;;;;;52.85;14.18;;;12.30;99.90;;;;;;5003391;28;250351;-71
2021/12/30 11:51:09;;;;;;;46.28;9.23;;;12.30;99.90;;;;;;5027146;28;20045;-71
2021/12/30 11:53:38;;;;;;;;;;;12.20;99.90;;;;;;5013780;28;59112;-71
2021/12/30 11:56:04;;;;;;;88.95;26.77;;;12.30;99.90;;;;;;5010197;28;19916;-71
2021/12/30 11:58:44;;;;;;;63.22;20.30;;;12.20;99.90;;;;;;5009541;28;255012;-71
2021/12/30 12:01:10;;;;;;;51.83;14.70;;;12.30;99.90;;;;;;5028187;28;20064;-70
2021/12/30 12:03:53;;;;;;;86.32;25.13;;;12.30;99.90;;;;;;5009986;28;143472;-70
2021/12/30 12:06:28;;;;;;;57.75;16.80;;;12.30;99.90;;;;;;5005085;28;20053;-71
2021/12/30 12:08:57;;;;;;;60.90;17.40;;;12.30;99.90;;;;;;5004095;28;274129;-71
2021/12/30 12:11:28;;;;;;;58.22;16.00;;;12.30;99.90;;;;;;5022953;28;20121;-70
2021/12/30 12:14:23;;;;;;;62.17;18.90;;;12.40;99.90;;;;;;5001535;28;257442;-71
2021/12/30 12:17:08;;;;;;;59.35;17.45;;;12.30;99.90;;;;;;4984966;28;249726;-71
2021/12/30 12:19:41;;;;;;;77.88;28.98;;;12.30;99.90;;;;;;5030936;28;20049;-70
2021/12/30 12:22:18;;;;;;;62.33;23.40;;;12.40;99.90;;;;;;4982341;28;25249;-71
2021/12/30 12:25:09;;;;;;;46.90;14.75;;;12.40;99.90;;;;;;5021431;28;20045;-70
2021/12/30 12:27:48;;;;;;;59.58;21.85;;;12.40;99.90;;;;;;5009179;28;31597;-72
2021/12/30 12:30:32;;;;;;;72.60;30.00;;;12.40;99.90;;;;;;5022799;28;20061;-68
2021/12/30 12:33:22;;;;;;;48.45;15.77;;;12.40;99.90;;;;;;5003086;28;270525;-71
2021/12/30 12:35:48;;;;;;;47.67;17.88;;;12.40;99.90;;;;;;5011300;28;20056;-72
2021/12/30 12:38:14;;;;;;;52.13;20.08;;;12.50;99.90;;;;;;5007859;28;262931;-71
2021/12/30 12:40:43;;;;;;;43.42;14.57;;;12.50;99.90;;;;;;5027276;28;20049;-71